createdAt,value
2022-09-12T00:01:11.335Z,15.50
2022-09-12T00:03:42.281Z,15.43
2022-09-12T00:06:18.159Z,15.36
2022-09-12T00:08:49.170Z,15.29
2022-09-12T00:11:16.167Z,15.21
2022-09-12T00:13:43.762Z,15.14
2022-09-12T00:16:21.082Z,15.08
2022-09-12T00:18:48.477Z,15.02
2022-09-12T00:21:16.994Z,14.98
2022-09-12T00:23:44.142Z,14.93
2022-09-12T00:26:11.570Z,14.88
2022-09-12T00:28:40.764Z,14.82
2022-09-12T00:31:11.750Z,14.77
2022-09-12T00:33:39.849Z,14.70
2022-09-12T00:36:10.716Z,14.64
2022-09-12T00:38:38.868Z,14.60
2022-09-12T00:41:06.445Z,14.57
2022-09-12T00:43:36.675Z,14.54
2022-09-12T00:46:34.711Z,14.49
2022-09-12T00:49:09.685Z,14.47
2022-09-12T00:51:37.914Z,14.44
2022-09-12T00:54:12.847Z,14.41
2022-09-12T00:56:44.156Z,14.37
2022-09-12T00:59:19.643Z,14.35
2022-09-12T01:01:48.846Z,14.34
2022-09-12T01:04:18.371Z,14.37
2022-09-12T01:06:46.669Z,14.40
2022-09-12T01:09:17.765Z,14.41
2022-09-12T01:11:47.147Z,14.43
2022-09-12T01:14:15.498Z,14.43
2022-09-12T01:16:43.871Z,14.41
2022-09-12T01:19:18.328Z,14.44
2022-09-12T01:21:54.360Z,14.42
2022-09-12T01:24:54.371Z,14.41
2022-09-12T01:27:53.604Z,14.42
2022-09-12T01:30:44.909Z,14.43
2022-09-12T01:33:11.810Z,14.43
2022-09-12T01:36:10.379Z,14.43
2022-09-12T01:38:45.234Z,14.45
2022-09-12T01:41:27.339Z,14.50
2022-09-12T01:44:13.195Z,14.54
2022-09-12T01:46:59.233Z,14.55
2022-09-12T01:49:36.931Z,14.60
2022-09-12T01:52:23.518Z,14.62
2022-09-12T01:54:57.974Z,14.63
2022-09-12T01:57:32.296Z,14.65
2022-09-12T02:00:04.569Z,14.62
2022-09-12T02:02:38.859Z,14.63
2022-09-12T02:05:20.912Z,14.62
2022-09-12T02:08:07.436Z,14.62
2022-09-12T02:10:48.859Z,14.61
2022-09-12T02:13:25.897Z,14.62
2022-09-12T02:15:59.030Z,14.61
2022-09-12T02:18:30.235Z,14.60
2022-09-12T02:20:57.652Z,14.59
2022-09-12T02:23:28.823Z,14.57
2022-09-12T02:26:02.261Z,14.53
2022-09-12T02:28:38.153Z,14.52
2022-09-12T02:31:11.432Z,14.50
2022-09-12T02:33:48.552Z,14.46
2022-09-12T02:36:31.812Z,14.42
2022-09-12T02:38:58.870Z,14.40
2022-09-12T02:41:26.645Z,14.39
2022-09-12T02:43:54.055Z,14.36
2022-09-12T02:46:29.885Z,14.34
2022-09-12T02:48:58.019Z,14.32
2022-09-12T02:51:26.213Z,14.29
2022-09-12T02:53:54.115Z,14.27
2022-09-12T02:56:28.766Z,14.28
2022-09-12T02:59:00.217Z,14.27
2022-09-12T03:01:47.153Z,14.29
2022-09-12T03:04:38.760Z,14.29
2022-09-12T03:07:37.874Z,14.30
2022-09-12T03:10:28.810Z,14.35
2022-09-12T03:13:18.748Z,14.41
2022-09-12T03:16:16.018Z,14.46
2022-09-12T03:18:51.664Z,14.50
2022-09-12T03:21:26.607Z,14.51
2022-09-12T03:24:02.971Z,14.52
2022-09-12T03:26:40.598Z,14.52
2022-09-12T03:29:08.742Z,14.51
2022-09-12T03:31:35.725Z,14.53
2022-09-12T03:34:02.739Z,14.54
2022-09-12T03:36:30.902Z,14.57
2022-09-12T03:38:57.854Z,14.59
2022-09-12T03:41:24.910Z,14.62
2022-09-12T03:43:52.128Z,14.64
2022-09-12T03:46:19.078Z,14.65
2022-09-12T03:48:46.117Z,14.66
2022-09-12T03:51:13.333Z,14.70
2022-09-12T03:53:40.257Z,14.75
2022-09-12T03:56:09.961Z,14.79
2022-09-12T03:58:38.059Z,14.81
2022-09-12T04:01:18.770Z,14.84
2022-09-12T04:03:49.244Z,14.85
2022-09-12T04:06:22.399Z,14.90
2022-09-12T04:08:52.275Z,14.92
2022-09-12T04:11:23.930Z,14.96
2022-09-12T04:13:52.007Z,14.97
2022-09-12T04:16:19.858Z,14.98
2022-09-12T04:18:49.891Z,15.01
2022-09-12T04:21:19.527Z,15.03
2022-09-12T04:23:46.475Z,15.08
2022-09-12T04:26:14.908Z,15.13
2022-09-12T04:28:46.465Z,15.18
2022-09-12T04:31:15.803Z,15.23
2022-09-12T04:33:43.589Z,15.30
2022-09-12T04:36:17.893Z,15.38
2022-09-12T04:38:48.141Z,15.43
2022-09-12T04:41:16.568Z,15.50
2022-09-12T04:43:50.048Z,15.57
2022-09-12T04:46:36.501Z,15.65
2022-09-12T04:49:03.918Z,15.69
2022-09-12T04:51:34.028Z,15.74
2022-09-12T04:54:07.182Z,15.78
2022-09-12T04:56:39.944Z,15.81
2022-09-12T04:59:09.113Z,15.88
2022-09-12T05:01:36.927Z,15.93
2022-09-12T05:04:03.969Z,16.02
2022-09-12T05:06:34.541Z,16.05
2022-09-12T05:09:04.168Z,16.07
2022-09-12T05:12:02.644Z,16.10
2022-09-12T05:14:24.397Z,16.13
2022-09-12T05:16:51.459Z,16.20
2022-09-12T05:19:18.900Z,16.29
2022-09-12T05:21:46.211Z,16.36
2022-09-12T05:24:13.375Z,16.44
2022-09-12T05:26:40.594Z,16.51
2022-09-12T05:29:09.213Z,16.60
2022-09-12T05:31:37.218Z,16.62
2022-09-12T05:34:04.791Z,16.70
2022-09-12T05:36:33.499Z,16.69
2022-09-12T05:39:01.277Z,16.68
2022-09-12T05:41:35.915Z,16.69
2022-09-12T05:44:10.578Z,16.70
2022-09-12T05:46:41.738Z,16.81
2022-09-12T05:49:13.738Z,16.91
2022-09-12T05:51:43.552Z,16.97
2022-09-12T05:54:13.994Z,16.98
2022-09-12T05:56:43.221Z,16.96
2022-09-12T05:59:31.687Z,17.00
2022-09-12T06:01:58.996Z,17.01
2022-09-12T06:04:28.197Z,17.02
2022-09-12T06:06:55.392Z,16.97
2022-09-12T06:09:25.450Z,16.99
2022-09-12T06:11:53.090Z,17.02
2022-09-12T06:14:20.216Z,17.02
2022-09-12T06:16:50.045Z,16.97
2022-09-12T06:19:20.134Z,17.02
2022-09-12T06:21:49.846Z,17.06
2022-09-12T06:24:18.542Z,17.09
2022-09-12T06:26:47.015Z,17.17
2022-09-12T06:29:18.906Z,17.12
2022-09-12T06:31:46.440Z,17.07
2022-09-12T06:34:16.307Z,17.01
2022-09-12T06:36:46.102Z,17.04
2022-09-12T06:39:18.990Z,17.13
2022-09-12T06:41:46.994Z,17.15
2022-09-12T06:44:20.254Z,17.23
2022-09-12T06:46:48.678Z,17.23
2022-09-12T06:49:32.172Z,17.35
2022-09-12T06:52:01.126Z,17.52
2022-09-12T06:54:28.080Z,17.79
2022-09-12T06:56:55.133Z,18.07
2022-09-12T06:59:23.006Z,18.30
2022-09-12T07:02:00.398Z,18.50
2022-09-12T07:04:30.408Z,18.52
2022-09-12T07:07:06.631Z,18.55
2022-09-12T07:09:34.036Z,18.58
2022-09-12T07:12:04.435Z,18.68
2022-09-12T07:14:31.983Z,18.77
2022-09-12T07:16:59.279Z,18.70
2022-09-12T07:19:26.347Z,18.66
2022-09-12T07:21:56.611Z,18.71
2022-09-12T07:24:26.250Z,18.67
2022-09-12T07:27:17.231Z,18.75
2022-09-12T07:29:47.987Z,18.61
2022-09-12T07:32:15.210Z,18.31
2022-09-12T07:34:42.582Z,18.24
2022-09-12T07:37:10.277Z,18.15
2022-09-12T07:39:38.064Z,17.99
2022-09-12T07:42:13.672Z,17.85
2022-09-12T07:44:41.378Z,17.80
2022-09-12T07:47:10.005Z,17.78
2022-09-12T07:49:39.146Z,17.75
2022-09-12T07:52:06.538Z,17.88
2022-09-12T07:54:33.512Z,17.98
2022-09-12T07:57:00.584Z,18.17
2022-09-12T07:59:50.851Z,18.22
2022-09-12T08:02:17.391Z,18.03
2022-09-12T08:04:47.797Z,18.17
2022-09-12T08:07:15.705Z,18.40
2022-09-12T08:09:42.650Z,18.50
2022-09-12T08:12:11.653Z,18.56
2022-09-12T08:14:39.142Z,18.92
2022-09-12T08:17:06.809Z,19.78
2022-09-12T08:19:34.242Z,19.73
2022-09-12T08:22:03.025Z,19.62
2022-09-12T08:24:30.153Z,19.77
2022-09-12T08:26:59.096Z,20.37
2022-09-12T08:29:26.662Z,20.86
2022-09-12T08:31:57.182Z,21.03
2022-09-12T08:34:25.165Z,20.55
2022-09-12T08:36:54.714Z,20.05
2022-09-12T08:39:36.458Z,19.65
2022-09-12T08:42:24.518Z,19.23
2022-09-12T08:45:10.271Z,19.14
2022-09-12T08:47:43.774Z,19.14
2022-09-12T08:50:11.729Z,19.19
2022-09-12T08:53:02.531Z,19.17
2022-09-12T08:55:59.796Z,19.00
2022-09-12T08:58:29.173Z,18.81
2022-09-12T09:01:39.209Z,18.81
2022-09-12T09:04:28.906Z,18.78
2022-09-12T09:07:04.261Z,18.63
2022-09-12T09:10:01.133Z,18.59
2022-09-12T09:12:47.835Z,18.58
2022-09-12T09:15:32.187Z,18.91
2022-09-12T09:18:11.192Z,19.93
2022-09-12T09:21:00.333Z,19.99
2022-09-12T09:23:32.121Z,20.03
2022-09-12T09:26:14.877Z,21.35
2022-09-12T09:28:53.936Z,21.11
2022-09-12T09:31:25.254Z,21.86
2022-09-12T09:33:57.236Z,22.97
2022-09-12T09:36:30.498Z,24.14
2022-09-12T09:39:31.590Z,24.57
2022-09-12T09:42:18.738Z,22.89
2022-09-12T09:44:49.189Z,22.80
2022-09-12T09:50:00.506Z,25.90
2022-09-12T09:52:31.010Z,26.57
2022-09-12T09:55:01.431Z,26.16
2022-09-12T09:57:34.915Z,26.11
2022-09-12T10:00:30.769Z,25.57
2022-09-12T10:03:26.587Z,26.36
2022-09-12T10:05:57.161Z,26.92
2022-09-12T10:08:24.432Z,27.29
2022-09-12T10:11:17.585Z,27.79
2022-09-12T10:13:53.736Z,28.43
2022-09-12T10:16:28.776Z,28.52
2022-09-12T10:19:03.359Z,28.86
2022-09-12T10:25:10.775Z,30.35
2022-09-12T10:27:38.780Z,30.67
2022-09-12T10:33:07.758Z,28.36
2022-09-12T10:35:49.652Z,27.32
2022-09-12T10:38:26.923Z,27.17
2022-09-12T10:41:03.833Z,27.18
2022-09-12T10:43:37.942Z,27.74
2022-09-12T10:46:17.893Z,26.01
2022-09-12T10:48:47.337Z,24.60
2022-09-12T10:51:27.689Z,23.46
2022-09-12T10:53:57.655Z,23.21
2022-09-12T10:56:31.013Z,22.87
2022-09-12T11:02:58.784Z,21.35
2022-09-12T11:05:41.313Z,21.13
2022-09-12T11:08:14.154Z,20.92
2022-09-12T11:11:06.276Z,20.68
2022-09-12T11:14:03.406Z,20.63
2022-09-12T11:16:54.323Z,20.34
2022-09-12T11:19:33.640Z,19.99
2022-09-12T11:22:17.522Z,19.61
2022-09-12T11:25:19.062Z,19.38
2022-09-12T11:27:57.047Z,19.28
2022-09-12T11:30:24.289Z,19.32
2022-09-12T11:32:54.222Z,19.59
2022-09-12T11:35:54.965Z,19.58
2022-09-12T11:38:58.932Z,19.66
2022-09-12T11:41:36.467Z,19.59
2022-09-12T11:44:24.673Z,19.59
2022-09-12T11:49:47.373Z,19.54
2022-09-12T11:52:21.089Z,19.48
2022-09-12T11:55:01.323Z,19.51
2022-09-12T11:57:36.419Z,19.46
2022-09-12T12:00:15.304Z,19.30
2022-09-12T12:02:59.893Z,19.24
2022-09-12T12:05:52.466Z,19.39
2022-09-12T12:08:24.360Z,19.39
2022-09-12T12:11:06.769Z,19.25
2022-09-12T12:13:46.026Z,19.26
2022-09-12T12:16:15.949Z,19.25
2022-09-12T12:18:46.337Z,19.34
2022-09-12T12:21:40.158Z,19.48
2022-09-12T12:26:55.284Z,19.37
2022-09-12T12:29:22.758Z,19.25
2022-09-12T12:32:05.193Z,19.34
2022-09-12T12:34:45.555Z,19.33
2022-09-12T12:37:19.174Z,19.33
2022-09-12T12:39:48.613Z,19.32
2022-09-12T12:42:34.346Z,19.26
2022-09-12T12:45:24.282Z,19.26
2022-09-12T12:48:08.810Z,19.18
2022-09-12T12:50:40.760Z,19.13
2022-09-12T12:53:18.396Z,19.14
2022-09-12T12:55:52.530Z,19.14
2022-09-12T12:58:40.752Z,19.15
2022-09-12T13:01:19.021Z,19.16
2022-09-12T13:04:01.506Z,19.22
2022-09-12T13:06:36.425Z,19.17
2022-09-12T13:09:24.509Z,19.02
2022-09-12T13:12:05.893Z,18.90
2022-09-12T13:14:59.751Z,18.84
2022-09-12T13:17:44.164Z,18.88
2022-09-12T13:20:29.702Z,18.92
2022-09-12T13:22:58.464Z,18.96
2022-09-12T13:25:28.979Z,18.92
2022-09-12T13:28:04.301Z,18.93
2022-09-12T13:30:36.304Z,19.00
2022-09-12T13:33:27.207Z,18.88
2022-09-12T13:36:18.282Z,18.67
2022-09-12T13:39:24.708Z,18.64
2022-09-12T13:42:15.443Z,18.41
2022-09-12T13:45:16.987Z,18.19
2022-09-12T13:48:06.726Z,18.10
2022-09-12T13:50:41.717Z,18.03
2022-09-12T13:53:17.884Z,18.06
2022-09-12T13:55:52.104Z,18.02
2022-09-12T13:58:26.750Z,18.08
2022-09-12T14:01:13.794Z,18.13
2022-09-12T14:04:15.346Z,18.20
2022-09-12T14:06:50.150Z,18.28
2022-09-12T14:09:25.230Z,18.49
2022-09-12T14:11:53.890Z,18.64
2022-09-12T14:14:31.502Z,18.67
2022-09-12T14:17:00.690Z,18.67
2022-09-12T14:19:29.357Z,18.78
2022-09-12T14:21:57.797Z,18.77
2022-09-12T14:24:25.207Z,18.71
2022-09-12T14:26:56.874Z,18.64
2022-09-12T14:29:25.415Z,18.70
2022-09-12T14:32:04.136Z,18.55
2022-09-12T14:34:31.341Z,18.45
2022-09-12T14:36:59.128Z,18.41
2022-09-12T14:39:41.747Z,18.23
2022-09-12T14:42:26.590Z,17.94
2022-09-12T14:45:31.790Z,17.69
2022-09-12T14:48:02.436Z,17.55
2022-09-12T14:50:35.503Z,17.47
2022-09-12T14:53:08.438Z,17.37
2022-09-12T14:55:58.020Z,17.24
2022-09-12T14:58:28.802Z,17.20
2022-09-12T15:01:23.019Z,17.17
2022-09-12T15:03:54.407Z,17.19
2022-09-12T15:06:33.090Z,17.19
2022-09-12T15:09:06.048Z,17.18
2022-09-12T15:11:33.989Z,17.13
2022-09-12T15:14:22.209Z,17.06
2022-09-12T15:16:49.313Z,17.03
2022-09-12T15:19:16.831Z,16.95
2022-09-12T15:21:44.004Z,16.95
2022-09-12T15:24:11.208Z,16.91
2022-09-12T15:26:38.681Z,16.88
2022-09-12T15:29:05.683Z,16.86
2022-09-12T15:31:34.607Z,16.87
2022-09-12T15:34:12.864Z,16.85
2022-09-12T15:36:39.837Z,16.78
2022-09-12T15:39:07.281Z,16.75
2022-09-12T15:41:37.884Z,16.72
2022-09-12T15:46:51.998Z,16.63
2022-09-12T15:49:21.571Z,16.57
2022-09-12T15:51:53.160Z,16.51
2022-09-12T15:54:26.112Z,16.43
2022-09-12T15:57:00.890Z,16.33
2022-09-12T15:59:36.365Z,16.25
2022-09-12T16:02:11.787Z,16.17
2022-09-12T16:04:39.436Z,16.11
2022-09-12T16:07:08.698Z,16.07
2022-09-12T16:09:37.524Z,16.06
2022-09-12T16:12:09.344Z,16.02
2022-09-12T16:14:36.338Z,16.00
2022-09-12T16:17:03.518Z,15.93
2022-09-12T16:19:33.123Z,15.86
2022-09-12T16:22:00.998Z,15.81
2022-09-12T16:24:34.320Z,15.76
2022-09-12T16:27:17.882Z,15.72
2022-09-12T16:29:45.988Z,15.69
2022-09-12T16:32:13.109Z,15.66
2022-09-12T16:34:40.092Z,15.65
2022-09-12T16:37:07.443Z,15.66
2022-09-12T16:39:34.850Z,15.65
2022-09-12T16:42:03.445Z,15.66
2022-09-12T16:44:31.117Z,15.65
2022-09-12T16:46:58.048Z,15.67
2022-09-12T16:49:27.232Z,15.67
2022-09-12T16:51:54.526Z,15.63
2022-09-12T16:54:21.927Z,15.64
2022-09-12T16:56:50.634Z,15.64
2022-09-12T16:59:18.464Z,15.65
2022-09-12T17:01:45.952Z,15.63
2022-09-12T17:04:13.288Z,15.62
2022-09-12T17:06:43.145Z,15.60
2022-09-12T17:12:09.455Z,15.53
2022-09-12T17:14:36.520Z,15.48
2022-09-12T17:17:03.531Z,15.43
2022-09-12T17:19:33.984Z,15.40
2022-09-12T17:22:01.357Z,15.32
2022-09-12T17:24:28.315Z,15.27
2022-09-12T17:26:57.202Z,15.23
2022-09-12T17:29:24.300Z,15.18
2022-09-12T17:31:51.307Z,15.15
2022-09-12T17:34:23.082Z,15.10
2022-09-12T17:36:50.912Z,15.04
2022-09-12T17:39:17.939Z,15.02
2022-09-12T17:41:46.243Z,14.98
2022-09-12T17:44:15.319Z,14.95
2022-09-12T17:46:43.497Z,14.92
2022-09-12T17:49:24.738Z,14.89
2022-09-12T17:51:58.562Z,14.87
2022-09-12T17:54:26.011Z,14.83
2022-09-12T17:56:56.453Z,14.78
2022-09-12T17:59:24.979Z,14.76
2022-09-12T18:04:55.554Z,14.70
2022-09-12T18:07:22.859Z,14.66
2022-09-12T18:09:51.478Z,14.60
2022-09-12T18:12:29.858Z,14.59
2022-09-12T18:15:01.427Z,14.55
2022-09-12T18:20:25.351Z,14.53
2022-09-12T18:22:52.429Z,14.57
2022-09-12T18:25:19.498Z,14.57
2022-09-12T18:27:46.801Z,14.52
2022-09-12T18:30:21.502Z,14.52
2022-09-12T18:32:52.572Z,14.52
2022-09-12T18:35:19.693Z,14.49
2022-09-12T18:37:49.038Z,14.45
2022-09-12T18:40:16.344Z,14.43
2022-09-12T18:42:43.393Z,14.43
2022-09-12T18:45:10.927Z,14.42
2022-09-12T18:47:38.178Z,14.40
2022-09-12T18:50:06.639Z,14.40
2022-09-12T18:52:33.804Z,14.35
2022-09-12T18:55:01.210Z,14.38
2022-09-12T18:57:30.639Z,14.38
2022-09-12T19:00:00.026Z,14.35
2022-09-12T19:02:28.603Z,14.30
2022-09-12T19:04:58.928Z,14.27
2022-09-12T19:07:26.950Z,14.28
2022-09-12T19:09:55.463Z,14.28
2022-09-12T19:12:22.420Z,14.27
2022-09-12T19:15:09.960Z,14.29
2022-09-12T19:17:37.257Z,14.25
2022-09-12T19:20:05.180Z,14.22
2022-09-12T19:22:32.471Z,14.22
2022-09-12T19:25:00.322Z,14.18
2022-09-12T19:27:27.446Z,14.19
2022-09-12T19:29:59.584Z,14.17
2022-09-12T19:32:26.891Z,14.19
2022-09-12T19:34:56.460Z,14.17
2022-09-12T19:37:24.568Z,14.17
2022-09-12T19:39:52.061Z,14.15
2022-09-12T19:42:26.098Z,14.15
2022-09-12T19:44:59.530Z,14.07
2022-09-12T19:47:30.458Z,14.05
2022-09-12T19:49:57.850Z,14.03
2022-09-12T19:52:24.804Z,14.01
2022-09-12T19:54:51.786Z,13.98
2022-09-12T19:57:22.958Z,13.96
2022-09-12T19:59:51.485Z,13.93
2022-09-12T20:02:22.007Z,13.91
2022-09-12T20:05:07.291Z,13.88
2022-09-12T20:07:35.883Z,13.86
2022-09-12T20:10:03.501Z,13.84
2022-09-12T20:12:30.562Z,13.79
2022-09-12T20:14:58.072Z,13.79
2022-09-12T20:17:25.514Z,13.75
2022-09-12T20:19:52.528Z,13.71
2022-09-12T20:22:20.349Z,13.66
2022-09-12T20:24:47.291Z,13.65
2022-09-12T20:27:14.586Z,13.63
2022-09-12T20:29:42.090Z,13.60
2022-09-12T20:32:10.285Z,13.60
2022-09-12T20:34:38.396Z,13.59
2022-09-12T20:37:06.620Z,13.58
2022-09-12T20:39:34.055Z,13.59
2022-09-12T20:42:01.087Z,13.61
2022-09-12T20:44:29.108Z,13.63
2022-09-12T20:46:57.182Z,13.65
2022-09-12T20:49:24.704Z,13.68
2022-09-12T20:51:52.325Z,13.72
2022-09-12T20:54:20.890Z,13.75
2022-09-12T20:56:48.259Z,13.79
2022-09-12T20:59:15.648Z,13.83
2022-09-12T21:01:44.154Z,13.86
2022-09-12T21:04:14.871Z,13.89
2022-09-12T21:06:44.410Z,13.91
2022-09-12T21:09:11.942Z,13.92
2022-09-12T21:11:42.799Z,13.94
2022-09-12T21:14:12.333Z,13.97
2022-09-12T21:16:39.535Z,13.99
2022-09-12T21:19:06.834Z,13.99
2022-09-12T21:21:34.508Z,14.03
2022-09-12T21:24:05.789Z,14.04
2022-09-12T21:26:33.168Z,14.06
2022-09-12T21:29:02.477Z,14.05
2022-09-12T21:31:30.571Z,14.10
2022-09-12T21:34:00.205Z,14.10
2022-09-12T21:36:28.342Z,14.12
2022-09-12T21:38:58.315Z,14.13
2022-09-12T21:41:25.447Z,14.14
2022-09-12T21:43:53.094Z,14.15
2022-09-12T21:46:20.181Z,14.12
2022-09-12T21:48:47.344Z,14.12
2022-09-12T21:51:14.686Z,14.13
2022-09-12T21:53:41.861Z,14.11
2022-09-12T21:56:09.116Z,14.12
2022-09-12T21:58:37.766Z,14.12
2022-09-12T22:01:06.168Z,14.12
2022-09-12T22:03:33.329Z,14.12
2022-09-12T22:06:02.922Z,14.15
2022-09-12T22:08:31.275Z,14.11
2022-09-12T22:10:59.757Z,14.11
2022-09-12T22:13:27.180Z,14.12
2022-09-12T22:15:54.371Z,14.14
2022-09-12T22:18:21.334Z,14.15
2022-09-12T22:20:48.579Z,14.12
2022-09-12T22:23:34.113Z,14.11
2022-09-12T22:26:03.189Z,14.10
2022-09-12T22:28:32.153Z,14.09
2022-09-12T22:30:59.737Z,14.05
2022-09-12T22:33:27.825Z,14.01
2022-09-12T22:35:54.796Z,14.01
2022-09-12T22:38:22.481Z,14.03
2022-09-12T22:40:49.565Z,14.05
2022-09-12T22:43:16.858Z,14.06
2022-09-12T22:45:43.813Z,14.07
2022-09-12T22:48:11.093Z,14.07
2022-09-12T22:50:38.009Z,14.07
2022-09-12T22:53:05.925Z,14.08
2022-09-12T22:55:33.372Z,14.10
2022-09-12T22:58:00.837Z,14.08
2022-09-12T23:00:28.070Z,14.08
2022-09-12T23:02:59.692Z,14.08
2022-09-12T23:05:45.412Z,14.06
2022-09-12T23:08:18.117Z,14.04
2022-09-12T23:10:45.556Z,14.02
2022-09-12T23:13:13.040Z,14.02
2022-09-12T23:15:40.102Z,14.01
2022-09-12T23:18:08.188Z,13.99
2022-09-12T23:20:35.147Z,13.98
2022-09-12T23:23:02.122Z,13.96
2022-09-12T23:25:29.340Z,13.94
2022-09-12T23:27:56.536Z,13.95
2022-09-12T23:30:23.496Z,14.00
2022-09-12T23:32:50.779Z,14.02
2022-09-12T23:35:20.983Z,13.99
2022-09-12T23:37:48.101Z,13.97
2022-09-12T23:40:15.411Z,13.98
2022-09-12T23:42:42.501Z,13.99
2022-09-12T23:45:10.445Z,13.98
2022-09-12T23:47:37.828Z,13.97
2022-09-12T23:50:05.081Z,13.94
2022-09-12T23:52:32.234Z,13.90
2022-09-12T23:55:02.526Z,13.89
2022-09-12T23:57:29.510Z,13.89
2022-09-12T23:59:56.544Z,13.88
